Overview Statistics Trail Chart Weather Telemetry Raw packets
 

This is the latest recevied weather packets stored in our database for station/object K7KAR-2. If no packets are shown the sender has not sent any weather packets the latest 10 day(s).

<< 1 2 3 4 5 >>
Time Temp. Humidity Pressure Rain* Wind** Luminosity Snow
1788619791 17.78° C 43% 1018 hPa 0 mm - 318 W/m² -
1788619487 17.78° C 44% 1018.1 hPa 0 mm - 300 W/m² -
1788619185 17.22° C 44% 1018 hPa 0 mm - 285 W/m² -
1788618884 16.67° C 47% 1018.2 hPa 0 mm - 127 W/m² -
1788618579 15.56° C 50% 1017.9 hPa 0 mm - 251 W/m² -
1788618278 15° C 51% 1017.8 hPa 0 mm - 137 W/m² -
1788617974 14.44° C 54% 1017.9 hPa 0 mm - 201 W/m² -
1788617668 13.89° C 54% 1017.9 hPa 0 mm - 59 W/m² -
1788617365 13.33° C 56% 1017.8 hPa 0 mm - 61 W/m² -
1788617060 13.33° C 57% 1017.5 hPa 0 mm - 59 W/m² -
1788616759 12.78° C 59% 1017.8 hPa 0 mm - 72 W/m² -
1788616454 13.33° C 58% 1017.4 hPa 0 mm - 67 W/m² -
1788616150 13.33° C 57% 1017.2 hPa 0 mm - 66 W/m² -
1788615849 13.33° C 54% 1017.1 hPa 0 mm - 52 W/m² -
1788615543 13.33° C 55% 1016.9 hPa 0 mm - 37 W/m² -
1788615238 13.89° C 54% 1016.5 hPa 0 mm - 25 W/m² -
1788614936 13.89° C 53% 1017 hPa 0 mm - 20 W/m² -
1788614627 13.89° C 53% 1016.9 hPa 0 mm - 20 W/m² -
1788614327 14.44° C 52% 1017.1 hPa 0 mm - 22 W/m² -
1788614023 14.44° C 51% 1016.9 hPa 0 mm - 21 W/m² -
1788613718 14.44° C 51% 1016.9 hPa 0 mm - 19 W/m² -
1788613416 15° C 50% 1016.7 hPa 0 mm - 12 W/m² -
1788613112 15° C 48% 1016.5 hPa 0 mm - 9 W/m² -
1788612807 15° C 49% 1016.1 hPa 0 mm - 7 W/m² -
1788612503 15.56° C 48% 1016.3 hPa 0 mm - 4 W/m² -

* Rain latest hour (hover to see other rain measurements)
** Current wind speed in m/s (hover to see current wind gust speed)